Time;durP1;ratioP1;P1;durP2;ratioP2;P2;SDS_P1;SDS_P2;PMS_P1;PMS_P2;Temp;Humidity;BMP_temperature;BMP_pressure;BME280_temperature;BME280_humidity;BME280_pressure;Samples;Min_cycle;Max_cycle;Signal;HPM_P1;HPM_P2
2022/05/15 00:00:58;;;;;;;4.00;3.00;;;16.30;98.60;;;;;;4973835;28;20707;-62
2022/05/15 00:03:27;;;;;;;6.85;3.30;;;16.30;98.60;;;;;;4973259;28;21007;-62
2022/05/15 00:05:57;;;;;;;5.40;2.90;;;16.30;98.80;;;;;;4973728;28;20313;-62
2022/05/15 00:08:27;;;;;;;7.05;2.85;;;16.20;98.80;;;;;;4986443;28;20626;-61
2022/05/15 00:10:56;;;;;;;8.52;3.38;;;16.20;98.90;;;;;;4979079;28;20652;-62
2022/05/15 00:13:25;;;;;;;6.00;3.10;;;16.20;99.10;;;;;;4973111;28;20300;-62
2022/05/15 00:15:53;;;;;;;5.95;3.20;;;16.10;99.30;;;;;;4973822;28;20836;-62
2022/05/15 00:18:22;;;;;;;7.47;3.40;;;16.10;99.30;;;;;;4973906;28;20219;-62
2022/05/15 00:20:51;;;;;;;7.97;4.25;;;16.10;99.50;;;;;;4973675;28;20306;-62
2022/05/15 00:23:22;;;;;;;5.00;2.95;;;16.10;99.40;;;;;;4972733;28;20273;-62
2022/05/15 00:25:50;;;;;;;4.95;2.88;;;16.10;99.50;;;;;;4973636;28;20630;-62
2022/05/15 00:28:19;;;;;;;8.50;3.05;;;16.10;99.70;;;;;;4973446;28;20278;-63
2022/05/15 00:30:48;;;;;;;9.52;3.53;;;16.10;99.90;;;;;;4975371;28;20190;-62
2022/05/15 00:33:16;;;;;;;5.13;3.03;;;16.10;99.80;;;;;;4991300;28;20206;-62
2022/05/15 00:35:45;;;;;;;7.00;3.50;;;16.00;99.90;;;;;;4990492;28;20238;-62
2022/05/15 00:38:13;;;;;;;6.10;3.20;;;16.10;99.90;;;;;;4980871;28;20238;-62
2022/05/15 00:40:45;;;;;;;8.57;3.50;;;16.00;99.90;;;;;;4976879;28;20203;-63
2022/05/15 00:43:14;;;;;;;5.20;2.90;;;16.00;99.90;;;;;;4972600;28;20298;-62
2022/05/15 00:45:44;;;;;;;10.00;3.03;;;16.00;99.90;;;;;;4973286;28;20223;-61
2022/05/15 00:48:12;;;;;;;4.40;2.60;;;16.00;99.90;;;;;;4973467;28;20214;-62
2022/05/15 00:50:40;;;;;;;10.65;3.97;;;16.10;99.90;;;;;;4973269;28;20289;-63
2022/05/15 00:53:11;;;;;;;11.52;4.07;;;16.10;99.90;;;;;;4972177;28;20241;-62
2022/05/15 00:55:44;;;;;;;5.60;2.97;;;16.00;99.90;;;;;;4973317;28;20242;-62
2022/05/15 00:58:18;;;;;;;4.93;2.95;;;16.00;99.90;;;;;;4973438;28;20199;-62
2022/05/15 01:00:46;;;;;;;6.38;3.35;;;15.90;99.90;;;;;;4974592;28;20284;-62
2022/05/15 01:03:16;;;;;;;5.97;2.50;;;15.90;99.90;;;;;;4990912;28;20257;-62
2022/05/15 01:05:47;;;;;;;8.95;3.53;;;15.80;99.90;;;;;;4990152;28;20284;-63
2022/05/15 01:08:21;;;;;;;4.70;2.88;;;15.80;99.90;;;;;;4974211;28;20206;-62
2022/05/15 01:11:00;;;;;;;5.00;3.58;;;15.80;99.90;;;;;;4979100;28;20593;-63
2022/05/15 01:13:34;;;;;;;7.40;3.55;;;15.80;99.90;;;;;;4972057;28;20217;-62
2022/05/15 01:16:02;;;;;;;7.55;4.13;;;15.80;99.90;;;;;;4972659;28;20605;-62
2022/05/15 01:18:32;;;;;;;5.38;3.30;;;15.80;99.90;;;;;;4972937;28;20216;-63
2022/05/15 01:21:03;;;;;;;7.78;2.67;;;15.70;99.90;;;;;;4972967;28;20206;-62
2022/05/15 01:23:30;;;;;;;6.43;2.78;;;15.70;99.90;;;;;;4972005;28;20285;-62
2022/05/15 01:25:58;;;;;;;8.85;3.05;;;15.70;99.90;;;;;;4972639;28;20226;-62
2022/05/15 01:28:28;;;;;;;3.95;2.60;;;15.70;99.90;;;;;;4972765;28;20206;-62
2022/05/15 01:30:58;;;;;;;5.43;3.08;;;15.70;99.90;;;;;;4975639;28;20209;-61
2022/05/15 01:33:26;;;;;;;4.97;3.15;;;15.70;99.90;;;;;;4990599;28;20675;-62
2022/05/15 01:35:54;;;;;;;5.10;3.05;;;15.70;99.90;;;;;;4988361;28;20313;-62
2022/05/15 01:38:23;;;;;;;12.70;3.72;;;15.70;99.90;;;;;;4982795;28;20264;-62
2022/05/15 01:40:51;;;;;;;9.32;3.70;;;15.60;99.90;;;;;;4974839;28;20309;-62
2022/05/15 01:43:19;;;;;;;5.65;3.17;;;15.60;99.90;;;;;;4971511;28;20298;-62
2022/05/15 01:45:47;;;;;;;5.45;2.70;;;15.70;99.90;;;;;;4972379;28;20631;-62
2022/05/15 01:48:15;;;;;;;5.07;3.40;;;15.70;99.90;;;;;;4972519;28;20211;-62
2022/05/15 01:50:43;;;;;;;8.75;3.05;;;15.70;99.90;;;;;;4972467;28;20664;-62
2022/05/15 01:53:11;;;;;;;4.10;2.65;;;15.60;99.90;;;;;;4971614;28;20309;-62
2022/05/15 01:55:41;;;;;;;4.68;2.60;;;15.60;99.90;;;;;;4972440;28;20755;-62
2022/05/15 01:58:10;;;;;;;5.20;3.00;;;15.70;99.90;;;;;;4972528;28;20301;-62
2022/05/15 02:00:40;;;;;;;3.60;2.50;;;15.70;99.90;;;;;;4972385;28;20607;-62
2022/05/15 02:03:08;;;;;;;6.55;2.30;;;15.70;99.90;;;;;;4971641;28;20276;-61
2022/05/15 02:05:36;;;;;;;5.28;3.13;;;15.60;99.90;;;;;;4972278;28;20651;-62
2022/05/15 02:08:04;;;;;;;4.80;2.47;;;15.60;99.90;;;;;;4979098;28;20692;-62
2022/05/15 02:10:33;;;;;;;8.00;3.35;;;15.60;99.90;;;;;;4978520;28;20273;-61
2022/05/15 02:13:02;;;;;;;3.08;2.78;;;15.60;99.90;;;;;;4971463;28;20222;-62
2022/05/15 02:15:30;;;;;;;6.20;3.30;;;15.60;99.90;;;;;;4974998;28;20313;-62
2022/05/15 02:17:58;;;;;;;4.72;3.08;;;15.60;99.90;;;;;;4976043;28;20281;-61
2022/05/15 02:20:25;;;;;;;4.40;3.00;;;15.60;99.90;;;;;;4975851;28;20620;-62
2022/05/15 02:22:53;;;;;;;4.85;2.75;;;15.40;99.90;;;;;;4974717;28;20691;-62
2022/05/15 02:25:21;;;;;;;3.85;2.50;;;15.40;99.90;;;;;;4976000;28;20281;-61
2022/05/15 02:27:49;;;;;;;7.68;2.72;;;15.30;99.90;;;;;;4975641;28;20665;-61
2022/05/15 02:30:20;;;;;;;7.55;3.10;;;15.30;99.90;;;;;;4975826;28;20207;-61
2022/05/15 02:32:48;;;;;;;5.88;3.33;;;15.30;99.90;;;;;;4992752;28;20728;-62
2022/05/15 02:35:16;;;;;;;6.60;3.33;;;15.20;99.90;;;;;;4993667;28;20268;-62
2022/05/15 02:37:47;;;;;;;4.88;2.60;;;15.20;99.90;;;;;;4979184;28;20305;-62
2022/05/15 02:40:16;;;;;;;4.22;2.50;;;15.30;99.90;;;;;;4982028;28;20210;-62
2022/05/15 02:42:45;;;;;;;7.32;3.20;;;15.20;99.90;;;;;;4974915;28;20262;-62
2022/05/15 02:45:14;;;;;;;4.05;2.80;;;15.20;99.90;;;;;;4975538;28;20286;-62
2022/05/15 02:47:43;;;;;;;7.80;3.05;;;15.20;99.90;;;;;;4975495;28;20230;-62
2022/05/15 02:52:56;;;;;;;4.97;3.60;;;15.20;99.90;;;;;;4974624;28;20207;-61
2022/05/15 02:55:25;;;;;;;6.40;2.90;;;15.10;99.90;;;;;;4974990;28;20645;-61
2022/05/15 02:57:54;;;;;;;3.10;2.47;;;15.20;99.90;;;;;;4975182;28;20302;-61
2022/05/15 03:00:25;;;;;;;4.30;2.55;;;15.20;99.90;;;;;;4975242;28;20234;-61
2022/05/15 03:02:55;;;;;;;3.75;2.58;;;15.20;99.90;;;;;;4974344;28;20814;-62
2022/05/15 03:05:28;;;;;;;3.75;2.70;;;15.30;99.90;;;;;;4975317;28;20229;-61
2022/05/15 03:07:56;;;;;;;7.63;2.97;;;15.20;99.90;;;;;;4988397;28;20201;-61
2022/05/15 03:10:25;;;;;;;4.90;2.70;;;15.10;99.90;;;;;;4981453;28;20203;-61
2022/05/15 03:12:52;;;;;;;4.35;2.83;;;15.10;99.90;;;;;;4973890;28;20308;-61
2022/05/15 03:15:21;;;;;;;4.85;3.30;;;15.20;99.90;;;;;;4975029;28;20226;-60
2022/05/15 03:17:49;;;;;;;9.98;3.00;;;15.10;99.90;;;;;;4975126;28;20207;-61
2022/05/15 03:20:19;;;;;;;5.75;2.80;;;15.20;99.90;;;;;;4975015;28;20230;-61
2022/05/15 03:22:47;;;;;;;6.25;3.05;;;15.10;99.90;;;;;;4974016;28;20280;-61
2022/05/15 03:25:15;;;;;;;5.13;2.83;;;15.10;99.90;;;;;;4973950;28;20245;-61
2022/05/15 03:27:43;;;;;;;4.47;2.72;;;15.10;99.90;;;;;;4974239;28;20245;-63
2022/05/15 03:30:12;;;;;;;4.10;2.78;;;15.00;99.90;;;;;;4974728;28;20211;-62
2022/05/15 03:32:41;;;;;;;2.95;2.50;;;14.90;99.90;;;;;;4991016;28;20240;-62
2022/05/15 03:35:11;;;;;;;3.08;2.70;;;14.80;99.90;;;;;;4992681;28;20238;-62
2022/05/15 03:37:41;;;;;;;5.00;3.38;;;14.90;99.90;;;;;;4984398;28;20248;-62
2022/05/15 03:40:11;;;;;;;7.47;3.03;;;14.90;99.90;;;;;;4980667;28;20203;-61
2022/05/15 03:42:40;;;;;;;4.50;2.70;;;14.90;99.90;;;;;;4974089;28;20591;-63
2022/05/15 03:45:08;;;;;;;3.42;3.13;;;14.80;99.90;;;;;;4974378;28;20309;-62
2022/05/15 03:47:38;;;;;;;4.47;2.70;;;14.80;99.90;;;;;;4971307;28;20244;-62
2022/05/15 03:50:07;;;;;;;10.05;2.90;;;14.80;99.90;;;;;;4974733;28;20230;-61
2022/05/15 03:52:35;;;;;;;6.88;3.10;;;14.80;99.90;;;;;;4974003;28;20305;-61
2022/05/15 03:55:05;;;;;;;7.18;2.78;;;14.80;99.90;;;;;;4974960;28;20703;-61
2022/05/15 03:57:33;;;;;;;3.58;2.72;;;14.80;99.90;;;;;;4993413;28;20210;-62
2022/05/15 04:00:01;;;;;;;3.60;2.40;;;14.90;99.90;;;;;;4993337;28;20209;-61
2022/05/15 04:02:30;;;;;;;5.78;3.03;;;14.90;99.90;;;;;;4990184;28;20244;-62
2022/05/15 04:04:58;;;;;;;4.35;2.85;;;15.00;99.90;;;;;;4967101;28;20735;-61
2022/05/15 04:07:26;;;;;;;3.92;2.80;;;14.90;99.90;;;;;;4978334;28;20607;-61
2022/05/15 04:09:54;;;;;;;4.75;2.35;;;14.80;99.90;;;;;;4980107;28;20237;-62
2022/05/15 04:12:23;;;;;;;5.00;2.75;;;14.80;99.90;;;;;;4966812;28;20248;-62
2022/05/15 04:14:51;;;;;;;5.38;2.92;;;14.80;99.90;;;;;;4967502;28;20263;-62
2022/05/15 04:17:19;;;;;;;3.97;3.15;;;14.80;99.90;;;;;;4967448;28;20309;-61
2022/05/15 04:19:49;;;;;;;4.47;2.90;;;14.70;99.90;;;;;;4973685;28;20290;-62
2022/05/15 04:22:17;;;;;;;4.55;2.92;;;14.70;99.90;;;;;;4967396;28;20249;-62
2022/05/15 04:24:45;;;;;;;7.13;2.60;;;14.80;99.90;;;;;;4973191;28;20647;-62
2022/05/15 04:27:13;;;;;;;4.75;2.90;;;14.80;99.90;;;;;;4973563;28;20309;-62
2022/05/15 04:29:42;;;;;;;7.25;3.50;;;14.70;99.90;;;;;;4973657;28;20286;-62
2022/05/15 04:32:10;;;;;;;5.22;2.85;;;14.60;99.90;;;;;;4985497;28;20230;-61
2022/05/15 04:34:37;;;;;;;5.10;3.00;;;14.60;99.90;;;;;;4992053;28;20924;-63
2022/05/15 04:37:05;;;;;;;5.80;2.58;;;14.50;99.90;;;;;;5021985;23;20266;-61
2022/05/15 04:39:34;;;;;;;7.03;3.80;;;14.50;99.90;;;;;;5014026;28;20744;-61
2022/05/15 04:42:02;;;;;;;4.30;3.55;;;14.40;99.90;;;;;;5024818;28;20682;-62
2022/05/15 04:44:30;;;;;;;7.00;3.17;;;14.30;99.90;;;;;;5005574;28;20265;-62
2022/05/15 04:46:59;;;;;;;6.35;4.03;;;14.20;99.90;;;;;;5005266;28;20279;-62
2022/05/15 04:49:27;;;;;;;4.60;3.35;;;14.10;99.90;;;;;;4986644;28;20206;-61
2022/05/15 04:51:55;;;;;;;7.03;3.50;;;14.00;99.90;;;;;;4992362;28;20301;-61
2022/05/15 04:54:23;;;;;;;3.85;3.45;;;13.90;99.90;;;;;;4991622;28;20198;-61
2022/05/15 04:56:51;;;;;;;4.80;3.42;;;13.80;99.90;;;;;;4992422;28;20272;-61
2022/05/15 04:59:19;;;;;;;4.93;4.00;;;13.80;99.90;;;;;;4992547;28;20245;-61
2022/05/15 05:01:47;;;;;;;4.40;3.22;;;13.80;99.90;;;;;;4992493;28;20296;-61
2022/05/15 05:04:16;;;;;;;4.22;3.83;;;13.70;99.90;;;;;;4991561;28;20265;-62
2022/05/15 05:06:44;;;;;;;5.88;3.33;;;13.70;99.90;;;;;;4993688;28;20244;-61
2022/05/15 05:09:12;;;;;;;5.53;3.80;;;13.80;99.90;;;;;;5000582;28;20679;-62
2022/05/15 05:11:40;;;;;;;7.07;4.60;;;13.80;99.90;;;;;;4992523;28;20210;-62
2022/05/15 05:14:08;;;;;;;7.88;3.90;;;14.10;99.90;;;;;;4991544;28;20618;-62
2022/05/15 05:16:36;;;;;;;7.55;4.40;;;13.90;99.90;;;;;;4992035;28;20221;-62
2022/05/15 05:19:05;;;;;;;4.40;3.70;;;14.00;99.90;;;;;;4992157;28;20206;-62
2022/05/15 05:21:34;;;;;;;6.53;4.25;;;14.10;99.90;;;;;;4992263;28;20280;-62
2022/05/15 05:24:02;;;;;;;8.40;4.20;;;14.20;99.90;;;;;;4990988;28;20222;-62
2022/05/15 05:26:30;;;;;;;5.03;3.95;;;14.30;99.90;;;;;;4992006;28;20225;-62
2022/05/15 05:28:58;;;;;;;10.30;4.80;;;14.30;99.90;;;;;;4991846;28;20750;-62
2022/05/15 05:31:26;;;;;;;5.43;3.80;;;14.40;99.90;;;;;;4998571;28;20221;-62
2022/05/15 05:33:55;;;;;;;4.25;3.85;;;14.50;99.90;;;;;;5008073;28;20196;-61
2022/05/15 05:36:23;;;;;;;5.18;3.55;;;14.60;99.90;;;;;;4996172;28;20655;-61
2022/05/15 05:38:52;;;;;;;7.00;4.60;;;14.80;99.90;;;;;;5001485;28;20229;-61
2022/05/15 05:41:20;;;;;;;9.27;4.28;;;14.90;99.90;;;;;;4991652;28;20240;-61
2022/05/15 05:43:47;;;;;;;4.53;3.78;;;15.00;99.90;;;;;;4990531;28;20305;-61
2022/05/15 05:46:15;;;;;;;11.10;4.47;;;15.10;99.90;;;;;;4988940;28;20249;-62
2022/05/15 05:48:45;;;;;;;6.78;4.63;;;15.20;99.90;;;;;;4991409;28;20202;-63
2022/05/15 05:51:14;;;;;;;4.78;3.70;;;15.30;99.90;;;;;;4992805;28;20619;-62
2022/05/15 05:53:43;;;;;;;5.68;4.10;;;15.50;99.90;;;;;;4975181;28;20283;-63
2022/05/15 05:56:12;;;;;;;6.82;4.32;;;15.60;99.90;;;;;;4972376;28;20565;-62
2022/05/15 05:58:40;;;;;;;6.47;4.20;;;15.70;99.90;;;;;;4978869;28;20794;-63
2022/05/15 06:01:09;;;;;;;7.13;3.55;;;15.90;99.90;;;;;;4978593;28;20249;-62
2022/05/15 06:06:22;;;;;;;7.03;3.63;;;16.20;99.90;;;;;;4975679;28;20222;-63
2022/05/15 06:08:50;;;;;;;7.38;4.00;;;16.40;99.90;;;;;;4978048;28;20285;-62
2022/05/15 06:11:19;;;;;;;6.43;3.92;;;16.50;99.90;;;;;;4974268;28;20314;-63
2022/05/15 06:13:47;;;;;;;10.60;3.67;;;16.60;99.90;;;;;;4975836;28;20304;-64
2022/05/15 06:16:15;;;;;;;4.45;3.40;;;16.70;99.90;;;;;;4976866;28;20241;-66
2022/05/15 06:18:43;;;;;;;8.00;3.78;;;16.80;99.90;;;;;;4977371;28;20495;-64
2022/05/15 06:21:11;;;;;;;8.40;3.80;;;16.80;99.90;;;;;;4977700;28;20206;-64
2022/05/15 06:23:43;;;;;;;6.90;3.38;;;16.90;99.90;;;;;;4978735;28;20324;-64
2022/05/15 06:26:11;;;;;;;7.20;3.42;;;17.10;99.90;;;;;;4971294;28;20226;-64
2022/05/15 06:28:40;;;;;;;12.98;3.70;;;17.10;99.90;;;;;;4974417;28;20352;-63
2022/05/15 06:31:08;;;;;;;7.55;3.58;;;17.30;99.90;;;;;;4977256;28;20594;-66
2022/05/15 06:33:36;;;;;;;6.00;3.30;;;17.40;99.90;;;;;;4976016;28;20214;-64
2022/05/15 06:36:05;;;;;;;8.05;3.50;;;17.50;99.90;;;;;;4973147;28;20857;-65
2022/05/15 06:38:33;;;;;;;11.75;4.22;;;17.50;99.90;;;;;;4975161;28;20237;-63
2022/05/15 06:41:01;;;;;;;5.80;3.22;;;17.70;99.90;;;;;;4975591;28;20206;-64
2022/05/15 06:43:29;;;;;;;9.02;3.78;;;17.70;99.90;;;;;;4974337;28;20237;-64
2022/05/15 06:45:58;;;;;;;5.32;3.28;;;17.80;99.90;;;;;;4969938;28;20240;-66
2022/05/15 06:48:26;;;;;;;6.50;3.58;;;17.90;99.90;;;;;;4974360;28;20623;-65
2022/05/15 06:50:54;;;;;;;4.13;3.30;;;17.90;99.90;;;;;;4977080;28;20297;-64
2022/05/15 06:53:22;;;;;;;3.88;2.80;;;18.00;99.90;;;;;;4977778;28;20202;-64
2022/05/15 06:58:41;;;;;;;6.97;3.92;;;18.00;99.90;;;;;;4939524;28;20784;-64
2022/05/15 07:01:10;;;;;;;9.52;3.25;;;17.90;99.90;;;;;;4973575;28;20241;-63
2022/05/15 07:03:38;;;;;;;8.13;3.10;;;17.90;99.90;;;;;;4973352;28;20296;-64
2022/05/15 07:06:07;;;;;;;8.90;3.63;;;18.00;99.90;;;;;;4971471;28;21125;-65
2022/05/15 07:08:35;;;;;;;7.53;3.25;;;18.10;99.90;;;;;;4976122;28;20238;-65
2022/05/15 07:11:03;;;;;;;8.13;3.85;;;18.20;99.90;;;;;;4977625;28;20217;-63
2022/05/15 07:13:32;;;;;;;8.43;3.67;;;18.30;99.90;;;;;;4969787;28;20206;-65
2022/05/15 07:16:00;;;;;;;4.03;3.03;;;18.30;99.90;;;;;;4971042;28;20226;-64
2022/05/15 07:18:29;;;;;;;8.90;2.78;;;18.40;99.90;;;;;;4979152;28;20210;-64
2022/05/15 07:20:58;;;;;;;6.97;4.13;;;18.40;99.90;;;;;;4976633;28;20292;-66
2022/05/15 07:23:26;;;;;;;4.03;3.60;;;18.40;99.90;;;;;;4970799;28;20639;-65
2022/05/15 07:25:58;;;;;;;4.63;3.10;;;18.50;99.90;;;;;;4972036;28;20237;-64
2022/05/15 07:28:26;;;;;;;5.82;3.80;;;18.60;99.90;;;;;;4973260;28;20268;-65
2022/05/15 07:30:54;;;;;;;7.28;4.03;;;18.70;99.90;;;;;;4973511;28;20330;-65
2022/05/15 07:33:23;;;;;;;6.72;3.40;;;18.90;99.90;;;;;;4972980;28;20290;-64
2022/05/15 07:35:54;;;;;;;4.72;2.75;;;19.10;99.90;;;;;;4967882;28;20693;-64
2022/05/15 07:38:23;;;;;;;9.23;3.60;;;19.20;99.90;;;;;;4974845;28;20241;-63
2022/05/15 07:40:52;;;;;;;7.25;3.25;;;19.30;99.90;;;;;;4973024;28;20258;-63
2022/05/15 07:43:20;;;;;;;7.22;3.10;;;19.40;99.90;;;;;;4975382;28;20202;-62
2022/05/15 07:45:48;;;;;;;8.02;3.63;;;19.50;99.90;;;;;;4975242;28;20269;-62
2022/05/15 07:48:15;;;;;;;9.75;3.25;;;19.60;99.90;;;;;;4976584;28;20313;-62
2022/05/15 07:50:43;;;;;;;13.43;4.00;;;19.70;99.90;;;;;;4972061;28;20296;-62
2022/05/15 07:53:13;;;;;;;7.07;3.35;;;19.80;99.90;;;;;;4967902;28;20969;-62
2022/05/15 07:55:40;;;;;;;5.88;2.83;;;19.70;99.90;;;;;;4971831;28;20208;-62
2022/05/15 07:58:08;;;;;;;3.13;2.78;;;19.80;99.90;;;;;;4969862;28;20264;-62
2022/05/15 08:00:36;;;;;;;8.35;3.00;;;20.00;99.90;;;;;;4971044;28;20320;-62
2022/05/15 08:03:07;;;;;;;6.13;2.85;;;20.10;99.90;;;;;;4972581;28;20214;-62
2022/05/15 08:08:27;;;;;;;9.57;3.55;;;20.10;99.90;;;;;;4970695;28;20210;-62
2022/05/15 08:10:55;;;;;;;6.80;3.47;;;20.20;99.90;;;;;;4975316;28;20201;-62
2022/05/15 08:13:25;;;;;;;8.35;3.28;;;20.40;99.90;;;;;;4972714;28;20289;-61
2022/05/15 08:15:54;;;;;;;6.20;3.67;;;20.70;99.90;;;;;;4972618;28;20727;-64
2022/05/15 08:23:57;;;;;;;5.20;3.08;;;20.90;99.40;;;;;;4968803;28;20635;-62
2022/05/15 08:26:26;;;;;;;4.35;2.80;;;21.10;99.40;;;;;;4967539;28;20336;-63
2022/05/15 08:28:55;;;;;;;5.38;3.10;;;21.20;99.20;;;;;;4974288;28;20236;-64
2022/05/15 08:31:25;;;;;;;3.95;2.50;;;21.30;99.20;;;;;;4971115;28;20202;-61
2022/05/15 08:33:54;;;;;;;6.32;2.85;;;21.50;98.40;;;;;;4969925;28;20213;-64
2022/05/15 08:36:22;;;;;;;5.97;3.15;;;21.40;98.60;;;;;;4968933;28;20230;-64
2022/05/15 08:38:50;;;;;;;5.18;2.40;;;21.60;98.60;;;;;;4973622;28;20241;-63
2022/05/15 08:41:32;;;;;;;7.38;3.05;;;21.70;98.40;;;;;;4978537;28;20308;-65
2022/05/15 08:44:08;;;;;;;5.32;2.58;;;21.90;98.30;;;;;;4973259;28;20785;-61
2022/05/15 08:46:41;;;;;;;3.25;2.50;;;22.00;98.20;;;;;;4975384;28;20249;-62
2022/05/15 08:49:12;;;;;;;5.13;2.92;;;22.30;97.80;;;;;;4968672;28;20210;-62
2022/05/15 08:51:49;;;;;;;8.20;3.40;;;22.20;98.00;;;;;;4972376;28;20210;-62
2022/05/15 08:54:17;;;;;;;6.22;2.53;;;22.20;97.30;;;;;;4968290;28;20646;-62
2022/05/15 08:56:50;;;;;;;5.60;2.75;;;22.40;98.20;;;;;;4974820;28;20305;-64
2022/05/15 08:59:24;;;;;;;3.63;3.20;;;22.60;97.00;;;;;;4972885;28;20290;-62
2022/05/15 09:01:54;;;;;;;5.07;3.10;;;22.50;96.80;;;;;;4969978;28;20201;-63
2022/05/15 09:04:22;;;;;;;6.20;2.53;;;22.50;96.90;;;;;;4968639;28;20754;-63
2022/05/15 09:07:14;;;;;;;4.85;2.90;;;22.70;96.80;;;;;;4974443;28;20312;-61
2022/05/15 09:09:54;;;;;;;5.03;3.40;;;22.70;96.90;;;;;;4974116;28;20218;-63
2022/05/15 09:12:25;;;;;;;5.25;3.15;;;23.10;96.60;;;;;;4971696;28;20197;-62
2022/05/15 09:15:00;;;;;;;5.45;2.78;;;23.30;97.00;;;;;;4970562;28;20205;-64
2022/05/15 09:17:41;;;;;;;9.52;3.70;;;23.60;96.10;;;;;;4969056;28;20262;-62
2022/05/15 09:20:12;;;;;;;4.85;2.97;;;23.40;95.70;;;;;;4973066;28;20296;-61
2022/05/15 09:22:55;;;;;;;9.38;3.42;;;23.30;96.10;;;;;;4971145;28;20212;-61
2022/05/15 09:25:25;;;;;;;5.50;3.30;;;23.30;95.90;;;;;;4964911;28;20297;-66
2022/05/15 09:28:03;;;;;;;5.82;2.67;;;23.20;96.10;;;;;;4969286;28;20758;-64
2022/05/15 09:30:37;;;;;;;6.68;2.80;;;23.40;95.80;;;;;;4972421;28;21096;-62
2022/05/15 09:33:06;;;;;;;3.95;2.97;;;23.50;95.30;;;;;;4972640;28;20206;-62
2022/05/15 09:35:38;;;;;;;7.32;3.22;;;23.80;96.20;;;;;;4970699;28;20314;-63
2022/05/15 09:43:54;;;;;;;5.22;3.42;;;24.40;94.30;;;;;;4967904;28;20214;-63
2022/05/15 09:46:25;;;;;;;5.40;2.60;;;24.60;94.50;;;;;;4970314;28;20303;-62
2022/05/15 09:48:57;;;;;;;3.75;2.70;;;24.80;93.80;;;;;;4969707;28;20209;-63
2022/05/15 09:51:33;;;;;;;6.70;3.45;;;24.80;93.90;;;;;;4973149;28;20268;-64
2022/05/15 09:54:01;;;;;;;4.95;2.75;;;25.20;93.80;;;;;;4966943;28;20285;-64
2022/05/15 09:56:31;;;;;;;8.60;3.75;;;25.40;93.30;;;;;;4973739;28;20308;-62
2022/05/15 09:59:10;;;;;;;7.05;3.38;;;25.30;93.30;;;;;;4966660;28;20220;-63
2022/05/15 10:01:50;;;;;;;3.72;2.60;;;25.60;93.40;;;;;;4975840;28;20683;-65
2022/05/15 10:04:23;;;;;;;9.05;3.22;;;25.80;93.10;;;;;;4972245;28;20216;-64
2022/05/15 10:06:52;;;;;;;6.75;2.65;;;26.10;93.70;;;;;;4971304;28;20261;-63
2022/05/15 10:09:26;;;;;;;3.50;2.55;;;26.20;93.10;;;;;;4972881;28;20229;-62
2022/05/15 10:12:00;;;;;;;4.78;2.83;;;26.30;92.50;;;;;;4971365;28;20238;-65
2022/05/15 10:14:37;;;;;;;7.22;2.72;;;26.10;92.40;;;;;;4967477;28;20316;-63
2022/05/15 10:17:07;;;;;;;6.05;3.22;;;26.10;92.00;;;;;;4973190;28;20225;-61
2022/05/15 10:19:45;;;;;;;5.65;2.70;;;26.10;92.80;;;;;;4975460;28;20675;-63
2022/05/15 10:22:28;;;;;;;5.30;2.70;;;26.50;93.90;;;;;;4973656;28;20317;-63
2022/05/15 10:25:18;;;;;;;9.40;3.60;;;26.60;91.60;;;;;;4968587;28;20888;-63
2022/05/15 10:27:54;;;;;;;7.05;3.20;;;26.40;91.70;;;;;;4971927;28;20261;-64
2022/05/15 10:30:31;;;;;;;4.20;2.75;;;26.50;92.40;;;;;;4974181;28;20209;-63
2022/05/15 10:33:03;;;;;;;5.32;2.55;;;26.90;90.90;;;;;;4967312;28;20293;-62
2022/05/15 10:35:39;;;;;;;5.85;3.30;;;26.90;90.60;;;;;;4969310;28;20241;-63
2022/05/15 10:38:21;;;;;;;4.28;3.00;;;26.80;90.80;;;;;;4956023;28;20305;-64
2022/05/15 10:40:55;;;;;;;3.85;2.53;;;27.30;88.90;;;;;;4955620;28;20285;-64
2022/05/15 10:43:38;;;;;;;4.50;2.33;;;27.30;90.00;;;;;;4953093;28;20293;-63
2022/05/15 10:46:15;;;;;;;5.10;2.40;;;27.50;90.50;;;;;;4953556;28;21705;-62
2022/05/15 10:48:52;;;;;;;6.50;2.60;;;27.70;88.90;;;;;;4955328;28;20312;-64
2022/05/15 10:51:24;;;;;;;3.83;2.70;;;27.80;88.10;;;;;;4956137;28;20904;-64
2022/05/15 10:57:26;;;;;;;6.88;3.67;;;28.10;87.00;;;;;;4954978;28;20313;-62
2022/05/15 11:00:01;;;;;;;2.13;1.90;;;27.90;85.40;;;;;;4953782;28;20214;-63
2022/05/15 11:02:59;;;;;;;6.55;3.08;;;28.20;88.60;;;;;;4953809;28;20237;-62
2022/05/15 11:05:30;;;;;;;3.40;2.92;;;28.50;85.60;;;;;;4945296;28;20285;-64
2022/05/15 11:08:08;;;;;;;6.65;2.33;;;28.80;86.40;;;;;;4952951;28;20351;-65
2022/05/15 11:10:44;;;;;;;5.05;2.60;;;28.40;85.80;;;;;;4954418;28;20226;-63
2022/05/15 11:13:21;;;;;;;5.75;2.90;;;28.80;85.60;;;;;;4955543;28;20299;-63
2022/05/15 11:15:58;;;;;;;5.40;2.53;;;29.10;83.70;;;;;;4953837;28;20723;-62
2022/05/15 11:18:46;;;;;;;6.57;2.35;;;28.90;83.80;;;;;;4955740;28;20300;-64
2022/05/15 11:21:21;;;;;;;6.30;2.55;;;28.30;83.80;;;;;;4955189;28;20223;-64
2022/05/15 11:23:56;;;;;;;3.85;2.20;;;28.50;85.20;;;;;;4953112;28;20276;-65
2022/05/15 11:26:28;;;;;;;3.03;2.60;;;28.90;82.80;;;;;;4946978;28;20277;-64
2022/05/15 11:29:00;;;;;;;2.88;2.33;;;29.20;82.20;;;;;;4953971;28;20298;-62
2022/05/15 11:31:32;;;;;;;3.22;2.28;;;29.20;81.30;;;;;;4956045;28;21174;-62
2022/05/15 11:34:04;;;;;;;3.65;2.55;;;28.90;77.30;;;;;;4952441;28;20239;-64
2022/05/15 11:36:38;;;;;;;4.10;1.52;;;29.00;79.30;;;;;;4961234;28;20249;-63
2022/05/15 11:39:24;;;;;;;4.80;1.75;;;28.60;75.00;;;;;;4979364;28;20228;-62
2022/05/15 11:42:18;;;;;;;4.30;2.05;;;28.50;76.30;;;;;;4971872;28;20208;-65
2022/05/15 11:44:48;;;;;;;3.05;2.10;;;28.60;75.80;;;;;;4958188;28;21131;-62
2022/05/15 11:47:26;;;;;;;4.03;1.90;;;28.80;77.10;;;;;;4975211;28;20324;-65
2022/05/15 11:50:05;;;;;;;3.35;1.85;;;29.10;75.80;;;;;;4975576;28;20989;-63
2022/05/15 11:52:37;;;;;;;6.10;1.80;;;29.60;76.30;;;;;;4977625;28;20311;-63
2022/05/15 11:55:41;;;;;;;3.05;1.90;;;29.50;75.20;;;;;;4970945;28;20318;-63
2022/05/15 11:58:14;;;;;;;6.80;2.05;;;29.60;74.40;;;;;;4974690;28;20328;-63
2022/05/15 12:00:42;;;;;;;3.15;1.83;;;29.40;74.50;;;;;;4974260;28;21338;-63
2022/05/15 12:03:41;;;;;;;2.47;2.25;;;29.50;74.10;;;;;;4973245;28;20202;-63
2022/05/15 12:06:13;;;;;;;4.45;1.83;;;29.50;75.00;;;;;;4972023;28;20228;-64
2022/05/15 12:08:42;;;;;;;3.28;2.10;;;29.50;73.70;;;;;;4970551;28;20344;-62
2022/05/15 12:11:29;;;;;;;4.10;1.92;;;29.40;73.20;;;;;;4977850;28;20326;-66
2022/05/15 12:14:00;;;;;;;4.25;2.42;;;29.40;72.90;;;;;;4965362;28;20210;-62
2022/05/15 12:16:33;;;;;;;3.67;2.40;;;29.80;73.10;;;;;;4970973;28;20329;-61
2022/05/15 12:19:04;;;;;;;7.75;2.20;;;29.70;72.50;;;;;;4978468;28;20289;-63
2022/05/15 12:21:41;;;;;;;3.72;2.00;;;29.50;72.70;;;;;;4976979;28;20229;-64
2022/05/15 12:24:30;;;;;;;3.63;1.95;;;29.30;71.50;;;;;;4973081;28;20296;-63
2022/05/15 12:27:17;;;;;;;4.30;2.00;;;29.20;72.40;;;;;;4969650;28;20292;-63
2022/05/15 12:29:56;;;;;;;6.70;2.38;;;29.70;71.20;;;;;;4976126;28;20275;-64
2022/05/15 12:32:30;;;;;;;4.93;2.03;;;29.80;70.50;;;;;;4971169;28;20200;-64
2022/05/15 12:34:59;;;;;;;3.50;2.40;;;29.80;72.60;;;;;;4970776;28;20859;-62
2022/05/15 12:37:31;;;;;;;3.15;2.10;;;29.80;71.30;;;;;;4970829;28;20333;-64
2022/05/15 12:40:01;;;;;;;5.25;2.10;;;29.60;71.10;;;;;;4975576;28;20225;-63
2022/05/15 12:42:38;;;;;;;4.38;2.00;;;29.70;72.00;;;;;;4971318;28;20991;-63
2022/05/15 12:45:10;;;;;;;2.92;2.15;;;30.00;71.10;;;;;;4972290;28;20205;-63
2022/05/15 12:47:38;;;;;;;2.20;1.85;;;30.00;72.40;;;;;;4978478;28;20786;-63
2022/05/15 12:50:15;;;;;;;5.20;2.00;;;29.90;68.90;;;;;;4975220;28;20870;-62
2022/05/15 12:52:52;;;;;;;3.88;2.15;;;29.80;68.90;;;;;;4975312;28;20603;-62
2022/05/15 12:55:24;;;;;;;2.75;1.70;;;29.80;70.60;;;;;;4970440;28;20209;-62
2022/05/15 12:57:54;;;;;;;5.40;2.15;;;30.00;71.20;;;;;;4976793;28;20213;-63
2022/05/15 13:00:28;;;;;;;3.65;2.55;;;30.00;69.30;;;;;;4971216;28;20276;-64
2022/05/15 13:02:59;;;;;;;3.15;1.90;;;30.20;70.80;;;;;;4968426;28;20216;-63
2022/05/15 13:05:31;;;;;;;3.97;2.20;;;29.90;69.70;;;;;;4978122;28;20297;-64
2022/05/15 13:08:06;;;;;;;3.35;2.05;;;30.00;71.10;;;;;;5001099;28;20319;-69
2022/05/15 13:10:41;;;;;;;2.72;2.50;;;30.20;71.00;;;;;;4966650;28;20225;-64
2022/05/15 13:13:20;;;;;;;2.83;1.92;;;30.40;70.00;;;;;;4969850;28;20293;-64
2022/05/15 13:15:53;;;;;;;2.88;1.75;;;30.60;69.10;;;;;;4971837;28;20233;-64
2022/05/15 13:18:23;;;;;;;2.47;2.22;;;30.70;70.80;;;;;;4970493;28;20550;-64
2022/05/15 13:20:56;;;;;;;3.67;2.15;;;30.40;69.70;;;;;;4970178;28;20301;-64
2022/05/15 13:23:29;;;;;;;3.15;1.95;;;29.90;69.30;;;;;;4971339;28;20289;-64
2022/05/15 13:26:00;;;;;;;2.92;2.10;;;29.60;68.80;;;;;;4971912;28;20333;-64
2022/05/15 13:28:28;;;;;;;2.78;2.30;;;29.30;69.40;;;;;;4974656;28;20233;-64
2022/05/15 13:30:56;;;;;;;3.28;2.60;;;29.40;70.90;;;;;;4972826;28;20656;-64